SBI5724 ZBAD-UNNT
Flight info
| Callsign | SBI5724 |
|---|---|
| Flight time | N/A |
| Altitude | 36100 |
| Route | IDKEX B339 ASILA A575 INTIK Y651 ENGUG Y746 DARNO/K0835F361 A575 NOSPI R241 BEGIL |
| Aircraft | B738/M-SDE2E3FGHIRWXY/LB1 |
Departure
| Time | N/A |
|---|---|
| Airport | Beijing Daxing International Airport (ZBAD) |
Arrival
| Time | 2026-05-06 15:24 |
|---|---|
| Airport | Novosibirsk Tolmachevo Airport (UNNT) |
| Time | Latitude | Longitude | Altitude | Speed | Heading |
|---|---|---|---|---|---|
| 2026-05-06 11:38 | 42.49419 | 114.56967 | 36215 ft | 387 kts | 290° |
| 2026-05-06 11:39 | 42.51820 | 114.50429 | 36217 ft | 388 kts | 290° |
| 2026-05-06 11:39 | 42.54221 | 114.43879 | 36218 ft | 389 kts | 290° |
| 2026-05-06 11:40 | 42.56629 | 114.37293 | 36222 ft | 390 kts | 290° |
| 2026-05-06 11:40 | 42.59027 | 114.30719 | 36222 ft | 392 kts | 290° |
| 2026-05-06 11:41 | 42.61448 | 114.24067 | 36232 ft | 393 kts | 291° |
| 2026-05-06 11:41 | 42.63897 | 114.17417 | 36233 ft | 395 kts | 292° |
| 2026-05-06 11:42 | 42.66458 | 114.10789 | 36237 ft | 397 kts | 292° |
| 2026-05-06 11:42 | 42.69037 | 114.04141 | 36236 ft | 398 kts | 292° |
| 2026-05-06 11:43 | 42.71608 | 113.97468 | 36241 ft | 398 kts | 292° |
| 2026-05-06 11:43 | 42.74169 | 113.90784 | 36251 ft | 399 kts | 292° |
| 2026-05-06 11:44 | 42.77991 | 113.80770 | 36243 ft | 399 kts | 292° |
| 2026-05-06 11:44 | 42.80544 | 113.74063 | 36255 ft | 399 kts | 292° |
| 2026-05-06 11:45 | 42.83015 | 113.67556 | 36257 ft | 398 kts | 292° |
| 2026-05-06 11:45 | 42.85540 | 113.60889 | 36261 ft | 398 kts | 292° |
| 2026-05-06 11:46 | 42.88079 | 113.54170 | 36264 ft | 398 kts | 293° |
| 2026-05-06 11:46 | 42.90611 | 113.47455 | 36266 ft | 398 kts | 293° |
| 2026-05-06 11:47 | 42.93145 | 113.40717 | 36268 ft | 398 kts | 293° |
| 2026-05-06 11:47 | 42.95669 | 113.33989 | 36273 ft | 399 kts | 293° |
| 2026-05-06 11:48 | 42.98194 | 113.27243 | 36280 ft | 399 kts | 293° |
| 2026-05-06 11:48 | 43.00718 | 113.20487 | 36283 ft | 399 kts | 293° |
| 2026-05-06 11:49 | 43.03269 | 113.13740 | 36279 ft | 400 kts | 294° |
| 2026-05-06 11:49 | 43.05857 | 113.07003 | 36282 ft | 400 kts | 294° |
| 2026-05-06 11:50 | 43.08428 | 113.00294 | 36290 ft | 401 kts | 294° |
| 2026-05-06 11:50 | 43.11008 | 112.93528 | 36293 ft | 401 kts | 294° |
| 2026-05-06 11:51 | 43.13588 | 112.86741 | 36292 ft | 402 kts | 294° |
| 2026-05-06 11:51 | 43.16160 | 112.79955 | 36293 ft | 402 kts | 294° |
| 2026-05-06 11:52 | 43.18737 | 112.73141 | 36300 ft | 402 kts | 294° |
| 2026-05-06 11:52 | 43.21308 | 112.66327 | 36304 ft | 402 kts | 294° |
| 2026-05-06 11:53 | 43.23876 | 112.59502 | 36303 ft | 402 kts | 294° |
| 2026-05-06 11:53 | 43.26442 | 112.52667 | 36303 ft | 403 kts | 294° |
| 2026-05-06 11:54 | 43.29001 | 112.45834 | 36309 ft | 403 kts | 294° |
| 2026-05-06 11:54 | 43.31558 | 112.38991 | 36308 ft | 403 kts | 294° |
| 2026-05-06 11:55 | 43.34096 | 112.32180 | 36312 ft | 403 kts | 294° |
| 2026-05-06 11:55 | 43.36647 | 112.25321 | 36315 ft | 403 kts | 294° |
| 2026-05-06 11:56 | 43.39201 | 112.18467 | 36306 ft | 403 kts | 297° |
| 2026-05-06 11:56 | 43.42695 | 112.12369 | 36317 ft | 410 kts | 310° |
| 2026-05-06 11:57 | 43.47039 | 112.07714 | 36330 ft | 419 kts | 322° |
| 2026-05-06 11:57 | 43.52054 | 112.03593 | 36326 ft | 419 kts | 323° |
| 2026-05-06 11:58 | 43.57013 | 111.99441 | 36322 ft | 419 kts | 322° |
| 2026-05-06 11:58 | 43.61994 | 111.95241 | 36322 ft | 419 kts | 323° |
| 2026-05-06 11:59 | 43.66633 | 111.90538 | 36333 ft | 409 kts | 310° |
| 2026-05-06 11:59 | 43.70179 | 111.84474 | 36315 ft | 403 kts | 297° |
| 2026-05-06 12:00 | 43.72783 | 111.77614 | 36321 ft | 402 kts | 295° |
| 2026-05-06 12:00 | 43.75320 | 111.70713 | 36325 ft | 403 kts | 295° |
| 2026-05-06 12:01 | 43.77857 | 111.63843 | 36344 ft | 403 kts | 295° |
| 2026-05-06 12:01 | 43.80424 | 111.56920 | 36341 ft | 404 kts | 296° |
| 2026-05-06 12:02 | 43.82566 | 111.51148 | 36341 ft | 405 kts | 296° |
| 2026-05-06 12:02 | 43.85134 | 111.44212 | 36340 ft | 405 kts | 296° |
| 2026-05-06 12:03 | 43.88116 | 111.36138 | 36349 ft | 405 kts | 296° |
| 2026-05-06 12:03 | 43.90261 | 111.30315 | 36350 ft | 405 kts | 296° |
| 2026-05-06 12:04 | 43.92821 | 111.23351 | 36346 ft | 405 kts | 296° |
| 2026-05-06 12:04 | 43.95373 | 111.16391 | 36350 ft | 405 kts | 296° |
| 2026-05-06 12:05 | 43.97908 | 111.09457 | 36351 ft | 405 kts | 296° |
| 2026-05-06 12:05 | 44.00452 | 111.02484 | 36349 ft | 404 kts | 296° |
| 2026-05-06 12:06 | 44.02988 | 110.95512 | 36353 ft | 404 kts | 296° |
| 2026-05-06 12:06 | 44.05522 | 110.88532 | 36355 ft | 404 kts | 296° |
| 2026-05-06 12:07 | 44.08049 | 110.81549 | 36357 ft | 404 kts | 296° |
| 2026-05-06 12:07 | 44.10576 | 110.74553 | 36350 ft | 404 kts | 296° |
| 2026-05-06 12:08 | 44.13095 | 110.67556 | 36353 ft | 404 kts | 296° |
| 2026-05-06 12:08 | 44.15612 | 110.60550 | 36355 ft | 404 kts | 296° |
| 2026-05-06 12:09 | 44.18125 | 110.53538 | 36356 ft | 405 kts | 296° |
| 2026-05-06 12:09 | 44.20633 | 110.46521 | 36356 ft | 405 kts | 296° |
| 2026-05-06 12:10 | 44.23139 | 110.39491 | 36353 ft | 405 kts | 296° |
| 2026-05-06 12:10 | 44.25643 | 110.32450 | 36355 ft | 405 kts | 296° |
| 2026-05-06 12:11 | 44.28142 | 110.25404 | 36356 ft | 405 kts | 296° |
| 2026-05-06 12:11 | 44.30640 | 110.18340 | 36349 ft | 405 kts | 296° |
| 2026-05-06 12:12 | 44.33116 | 110.11324 | 36353 ft | 406 kts | 296° |
| 2026-05-06 12:12 | 44.35605 | 110.04250 | 36351 ft | 406 kts | 296° |
| 2026-05-06 12:13 | 44.38090 | 109.97170 | 36353 ft | 406 kts | 296° |
| 2026-05-06 12:13 | 44.40575 | 109.90075 | 36351 ft | 406 kts | 296° |
| 2026-05-06 12:14 | 44.43031 | 109.82940 | 36354 ft | 406 kts | 295° |
| 2026-05-06 12:14 | 44.45455 | 109.75789 | 36355 ft | 407 kts | 295° |
| 2026-05-06 12:15 | 44.47879 | 109.68622 | 36357 ft | 407 kts | 295° |
| 2026-05-06 12:15 | 44.50290 | 109.61489 | 36355 ft | 408 kts | 295° |
| 2026-05-06 12:16 | 44.52717 | 109.54293 | 36356 ft | 408 kts | 295° |
| 2026-05-06 12:16 | 44.55141 | 109.47088 | 36358 ft | 409 kts | 295° |
| 2026-05-06 12:17 | 44.57564 | 109.39865 | 36356 ft | 409 kts | 295° |
| 2026-05-06 12:17 | 44.59985 | 109.32630 | 36357 ft | 410 kts | 295° |
| 2026-05-06 12:18 | 44.62404 | 109.25381 | 36357 ft | 410 kts | 295° |
| 2026-05-06 12:18 | 44.64821 | 109.18119 | 36358 ft | 410 kts | 295° |
| 2026-05-06 12:19 | 44.67235 | 109.10845 | 36357 ft | 411 kts | 295° |
| 2026-05-06 12:19 | 44.69646 | 109.03561 | 36355 ft | 411 kts | 295° |
| 2026-05-06 12:20 | 44.72057 | 108.96255 | 36359 ft | 412 kts | 295° |
| 2026-05-06 12:20 | 44.74466 | 108.88935 | 36358 ft | 412 kts | 295° |
| 2026-05-06 12:21 | 44.76858 | 108.81647 | 36358 ft | 413 kts | 295° |
| 2026-05-06 12:21 | 44.79265 | 108.74293 | 36353 ft | 413 kts | 295° |
| 2026-05-06 12:22 | 44.81667 | 108.66935 | 36357 ft | 413 kts | 295° |
| 2026-05-06 12:22 | 44.84066 | 108.59564 | 36354 ft | 414 kts | 295° |
| 2026-05-06 12:23 | 44.86458 | 108.52192 | 36351 ft | 414 kts | 295° |
| 2026-05-06 12:23 | 44.88847 | 108.44814 | 36354 ft | 414 kts | 295° |
| 2026-05-06 12:24 | 44.91350 | 108.37509 | 36345 ft | 414 kts | 301° |
| 2026-05-06 12:24 | 44.94870 | 108.31164 | 36358 ft | 414 kts | 311° |
| 2026-05-06 12:25 | 44.98780 | 108.25172 | 36349 ft | 414 kts | 311° |
| 2026-05-06 12:25 | 45.02678 | 108.19167 | 36348 ft | 415 kts | 311° |
| 2026-05-06 12:26 | 45.06563 | 108.13131 | 36347 ft | 415 kts | 311° |
| 2026-05-06 12:26 | 45.10437 | 108.07081 | 36347 ft | 415 kts | 311° |
| 2026-05-06 12:27 | 45.14310 | 108.01015 | 36349 ft | 415 kts | 311° |
| 2026-05-06 12:27 | 45.18184 | 107.94934 | 36346 ft | 415 kts | 311° |
| 2026-05-06 12:28 | 45.22028 | 107.88887 | 36348 ft | 416 kts | 311° |
| 2026-05-06 12:28 | 45.25903 | 107.82779 | 36345 ft | 416 kts | 311° |
| 2026-05-06 12:29 | 45.29775 | 107.76663 | 36344 ft | 416 kts | 311° |
| 2026-05-06 12:29 | 45.33644 | 107.70536 | 36347 ft | 417 kts | 311° |
| 2026-05-06 12:30 | 45.37515 | 107.64393 | 36348 ft | 417 kts | 311° |
| 2026-05-06 12:30 | 45.41381 | 107.58246 | 36347 ft | 417 kts | 311° |
| 2026-05-06 12:31 | 45.45247 | 107.52083 | 36347 ft | 417 kts | 311° |
| 2026-05-06 12:31 | 45.49092 | 107.45941 | 36350 ft | 417 kts | 311° |
| 2026-05-06 12:32 | 45.52956 | 107.39754 | 36349 ft | 418 kts | 311° |
| 2026-05-06 12:32 | 45.56819 | 107.33555 | 36351 ft | 418 kts | 311° |
| 2026-05-06 12:33 | 45.60682 | 107.27343 | 36355 ft | 418 kts | 311° |
| 2026-05-06 12:33 | 45.64536 | 107.21130 | 36354 ft | 418 kts | 311° |
| 2026-05-06 12:34 | 45.68396 | 107.14895 | 36358 ft | 418 kts | 311° |
| 2026-05-06 12:34 | 45.72249 | 107.08656 | 36360 ft | 418 kts | 311° |
| 2026-05-06 12:35 | 45.76076 | 107.02444 | 36362 ft | 418 kts | 311° |
| 2026-05-06 12:35 | 45.79924 | 106.96186 | 36364 ft | 418 kts | 311° |
| 2026-05-06 12:36 | 45.83766 | 106.89922 | 36364 ft | 418 kts | 311° |
| 2026-05-06 12:36 | 45.87611 | 106.83641 | 36361 ft | 418 kts | 311° |
| 2026-05-06 12:37 | 45.91450 | 106.77357 | 36362 ft | 419 kts | 311° |
| 2026-05-06 12:37 | 45.95289 | 106.71059 | 36361 ft | 419 kts | 311° |
| 2026-05-06 12:38 | 45.99128 | 106.64747 | 36360 ft | 419 kts | 311° |
| 2026-05-06 12:38 | 46.02961 | 106.58428 | 36360 ft | 419 kts | 311° |
| 2026-05-06 12:39 | 46.06767 | 106.52140 | 36360 ft | 419 kts | 311° |
| 2026-05-06 12:39 | 46.10598 | 106.45797 | 36357 ft | 419 kts | 311° |
| 2026-05-06 12:40 | 46.14426 | 106.39442 | 36357 ft | 420 kts | 311° |
| 2026-05-06 12:40 | 46.18252 | 106.33077 | 36356 ft | 420 kts | 311° |
| 2026-05-06 12:41 | 46.22074 | 106.26705 | 36354 ft | 420 kts | 311° |
| 2026-05-06 12:41 | 46.25893 | 106.20323 | 36353 ft | 420 kts | 311° |
| 2026-05-06 12:42 | 46.29707 | 106.13932 | 36352 ft | 420 kts | 311° |
| 2026-05-06 12:42 | 46.33520 | 106.07529 | 36353 ft | 420 kts | 311° |
| 2026-05-06 12:43 | 46.37298 | 106.01170 | 36349 ft | 420 kts | 311° |
| 2026-05-06 12:43 | 46.41107 | 105.94745 | 36355 ft | 419 kts | 311° |
| 2026-05-06 12:44 | 46.44905 | 105.88324 | 36352 ft | 419 kts | 311° |
| 2026-05-06 12:44 | 46.48697 | 105.81898 | 36350 ft | 419 kts | 311° |
| 2026-05-06 12:45 | 46.51847 | 105.76546 | 36350 ft | 419 kts | 312° |
| 2026-05-06 12:46 | 46.57850 | 105.66320 | 36350 ft | 419 kts | 312° |
| 2026-05-06 12:47 | 46.65219 | 105.53712 | 36343 ft | 419 kts | 312° |
| 2026-05-06 12:47 | 46.65859 | 105.52614 | 36345 ft | 418 kts | 312° |
| 2026-05-06 12:48 | 46.73003 | 105.40331 | 36344 ft | 418 kts | 312° |
| 2026-05-06 12:48 | 46.76735 | 105.33895 | 36343 ft | 418 kts | 312° |
| 2026-05-06 12:49 | 46.80489 | 105.27402 | 36340 ft | 418 kts | 312° |
| 2026-05-06 12:49 | 46.84236 | 105.20907 | 36336 ft | 418 kts | 312° |
| 2026-05-06 12:50 | 46.87365 | 105.15471 | 36336 ft | 417 kts | 312° |
| 2026-05-06 12:50 | 46.91706 | 105.07913 | 36331 ft | 417 kts | 312° |
| 2026-05-06 12:51 | 46.95425 | 105.01419 | 36325 ft | 416 kts | 312° |
| 2026-05-06 12:51 | 46.99142 | 104.94916 | 36327 ft | 416 kts | 312° |
| 2026-05-06 12:52 | 47.02849 | 104.88412 | 36324 ft | 415 kts | 312° |
| 2026-05-06 12:52 | 47.06524 | 104.81951 | 36308 ft | 415 kts | 312° |
| 2026-05-06 12:53 | 47.10225 | 104.75428 | 36325 ft | 415 kts | 312° |
| 2026-05-06 12:53 | 47.13911 | 104.68916 | 36306 ft | 415 kts | 312° |
| 2026-05-06 12:54 | 47.17586 | 104.62408 | 36311 ft | 414 kts | 312° |
| 2026-05-06 12:54 | 47.21265 | 104.55877 | 36316 ft | 414 kts | 312° |
| 2026-05-06 12:55 | 47.24940 | 104.49338 | 36303 ft | 414 kts | 312° |
| 2026-05-06 12:55 | 47.28601 | 104.42807 | 36309 ft | 413 kts | 312° |
| 2026-05-06 12:56 | 47.32232 | 104.36315 | 36310 ft | 413 kts | 312° |
| 2026-05-06 12:56 | 47.35879 | 104.29777 | 36301 ft | 412 kts | 312° |
| 2026-05-06 12:57 | 47.39522 | 104.23233 | 36305 ft | 412 kts | 312° |
| 2026-05-06 12:57 | 47.43158 | 104.16685 | 36299 ft | 412 kts | 312° |
| 2026-05-06 12:58 | 47.46790 | 104.10131 | 36297 ft | 412 kts | 312° |
| 2026-05-06 12:58 | 47.50415 | 104.03572 | 36290 ft | 412 kts | 312° |
| 2026-05-06 12:59 | 47.54020 | 103.97034 | 36296 ft | 412 kts | 312° |
| 2026-05-06 12:59 | 47.57644 | 103.90445 | 36288 ft | 413 kts | 312° |
| 2026-05-06 13:00 | 47.61266 | 103.83843 | 36288 ft | 413 kts | 312° |
| 2026-05-06 13:00 | 47.64887 | 103.77227 | 36280 ft | 413 kts | 312° |
| 2026-05-06 13:01 | 47.68480 | 103.70646 | 36279 ft | 412 kts | 312° |
| 2026-05-06 13:01 | 47.72085 | 103.64026 | 36281 ft | 411 kts | 312° |
| 2026-05-06 13:02 | 47.75676 | 103.57417 | 36278 ft | 411 kts | 312° |
| 2026-05-06 13:02 | 47.79264 | 103.50797 | 36272 ft | 411 kts | 312° |
| 2026-05-06 13:03 | 47.82842 | 103.44180 | 36273 ft | 410 kts | 312° |
| 2026-05-06 13:03 | 47.86413 | 103.37558 | 36301 ft | 409 kts | 313° |
| 2026-05-06 13:04 | 47.89947 | 103.30992 | 36301 ft | 408 kts | 313° |
| 2026-05-06 13:04 | 47.93494 | 103.24384 | 36304 ft | 408 kts | 313° |
| 2026-05-06 13:05 | 47.97039 | 103.17763 | 36275 ft | 408 kts | 312° |
| 2026-05-06 13:05 | 48.00580 | 103.11130 | 36266 ft | 408 kts | 312° |
| 2026-05-06 13:06 | 48.04124 | 103.04477 | 36265 ft | 408 kts | 312° |
| 2026-05-06 13:06 | 48.07638 | 102.97863 | 36266 ft | 408 kts | 312° |
| 2026-05-06 13:07 | 48.11174 | 102.91193 | 36268 ft | 409 kts | 312° |
| 2026-05-06 13:07 | 48.14110 | 102.85643 | 36264 ft | 409 kts | 312° |
| 2026-05-06 13:08 | 48.17637 | 102.78956 | 36263 ft | 409 kts | 312° |
| 2026-05-06 13:08 | 48.21734 | 102.71173 | 36253 ft | 409 kts | 312° |
| 2026-05-06 13:09 | 48.24682 | 102.65556 | 36255 ft | 408 kts | 312° |
| 2026-05-06 13:09 | 48.28167 | 102.58902 | 36252 ft | 408 kts | 312° |
| 2026-05-06 13:10 | 48.31665 | 102.52207 | 36255 ft | 407 kts | 312° |
| 2026-05-06 13:10 | 48.35156 | 102.45508 | 36260 ft | 406 kts | 312° |
| 2026-05-06 13:11 | 48.38637 | 102.38812 | 36260 ft | 405 kts | 312° |
| 2026-05-06 13:11 | 48.42100 | 102.32133 | 36253 ft | 404 kts | 312° |
| 2026-05-06 13:12 | 48.45547 | 102.25470 | 36258 ft | 403 kts | 312° |
| 2026-05-06 13:12 | 48.48969 | 102.18839 | 36250 ft | 403 kts | 312° |
| 2026-05-06 13:13 | 48.52399 | 102.12175 | 36256 ft | 402 kts | 312° |
| 2026-05-06 13:13 | 48.55822 | 102.05510 | 36251 ft | 401 kts | 312° |
| 2026-05-06 13:14 | 48.59237 | 101.98843 | 36243 ft | 401 kts | 312° |
| 2026-05-06 13:14 | 48.62647 | 101.92169 | 36241 ft | 400 kts | 312° |
| 2026-05-06 13:15 | 48.66026 | 101.85537 | 36256 ft | 400 kts | 312° |
| 2026-05-06 13:15 | 48.69428 | 101.78851 | 36233 ft | 400 kts | 312° |
| 2026-05-06 13:16 | 48.72822 | 101.72156 | 36247 ft | 400 kts | 312° |
| 2026-05-06 13:16 | 48.76212 | 101.65455 | 36240 ft | 401 kts | 312° |
| 2026-05-06 13:17 | 48.79601 | 101.58738 | 36237 ft | 401 kts | 312° |
| 2026-05-06 13:17 | 48.82993 | 101.51998 | 36243 ft | 401 kts | 312° |
| 2026-05-06 13:18 | 48.86356 | 101.45300 | 36244 ft | 401 kts | 312° |
| 2026-05-06 13:18 | 48.89736 | 101.38549 | 36233 ft | 401 kts | 312° |
| 2026-05-06 13:19 | 48.93111 | 101.31791 | 36236 ft | 401 kts | 311° |
| 2026-05-06 13:19 | 48.96489 | 101.25013 | 36236 ft | 402 kts | 311° |
| 2026-05-06 13:20 | 48.99842 | 101.18265 | 36235 ft | 402 kts | 311° |
| 2026-05-06 13:20 | 49.03209 | 101.11472 | 36230 ft | 401 kts | 311° |
| 2026-05-06 13:21 | 49.06569 | 101.04677 | 36229 ft | 402 kts | 311° |
| 2026-05-06 13:21 | 49.09931 | 100.97860 | 36217 ft | 402 kts | 311° |
| 2026-05-06 13:22 | 49.13286 | 100.91039 | 36227 ft | 401 kts | 311° |
| 2026-05-06 13:22 | 49.16625 | 100.84234 | 36226 ft | 402 kts | 311° |
| 2026-05-06 13:23 | 49.19973 | 100.77394 | 36220 ft | 402 kts | 311° |
| 2026-05-06 13:23 | 49.23325 | 100.70528 | 36229 ft | 402 kts | 311° |
| 2026-05-06 13:24 | 49.26673 | 100.63653 | 36227 ft | 403 kts | 311° |
| 2026-05-06 13:24 | 49.30020 | 100.56761 | 36210 ft | 403 kts | 310° |
| 2026-05-06 13:25 | 49.33352 | 100.49879 | 36214 ft | 402 kts | 310° |
| 2026-05-06 13:25 | 49.36115 | 100.44162 | 36214 ft | 401 kts | 310° |
| 2026-05-06 13:26 | 49.38876 | 100.38440 | 36230 ft | 401 kts | 310° |
| 2026-05-06 13:26 | 49.43292 | 100.29256 | 36216 ft | 401 kts | 310° |
| 2026-05-06 13:27 | 49.46039 | 100.23527 | 36222 ft | 401 kts | 310° |
| 2026-05-06 13:27 | 49.49907 | 100.15441 | 36219 ft | 401 kts | 310° |
| 2026-05-06 13:28 | 49.53187 | 100.08563 | 36215 ft | 401 kts | 310° |
| 2026-05-06 13:28 | 49.56481 | 100.01637 | 36218 ft | 400 kts | 310° |
| 2026-05-06 13:29 | 49.59769 | 99.94709 | 36215 ft | 400 kts | 310° |
| 2026-05-06 13:29 | 49.63042 | 99.87795 | 36223 ft | 399 kts | 310° |
| 2026-05-06 13:30 | 49.66314 | 99.80862 | 36223 ft | 398 kts | 310° |
| 2026-05-06 13:30 | 49.69547 | 99.73998 | 36228 ft | 397 kts | 310° |
| 2026-05-06 13:31 | 49.72796 | 99.67078 | 36229 ft | 397 kts | 310° |
| 2026-05-06 13:31 | 49.76034 | 99.60165 | 36226 ft | 397 kts | 310° |
| 2026-05-06 13:32 | 49.79264 | 99.53251 | 36233 ft | 396 kts | 309° |
| 2026-05-06 13:32 | 49.82498 | 99.46311 | 36223 ft | 397 kts | 309° |
| 2026-05-06 13:33 | 49.85724 | 99.39369 | 36231 ft | 397 kts | 309° |
| 2026-05-06 13:33 | 49.88953 | 99.32403 | 36230 ft | 398 kts | 309° |
| 2026-05-06 13:34 | 49.92154 | 99.25478 | 36228 ft | 398 kts | 309° |
| 2026-05-06 13:34 | 49.95376 | 99.18490 | 36225 ft | 399 kts | 309° |
| 2026-05-06 13:35 | 49.98600 | 99.11479 | 36220 ft | 399 kts | 309° |
| 2026-05-06 13:35 | 50.01822 | 99.04455 | 36229 ft | 399 kts | 309° |
| 2026-05-06 13:36 | 50.05042 | 98.97415 | 36233 ft | 399 kts | 309° |
| 2026-05-06 13:36 | 50.08256 | 98.90369 | 36236 ft | 399 kts | 308° |
| 2026-05-06 13:37 | 50.11465 | 98.83315 | 36235 ft | 399 kts | 308° |
| 2026-05-06 13:37 | 50.14668 | 98.76256 | 36236 ft | 399 kts | 308° |
| 2026-05-06 13:38 | 50.17864 | 98.69195 | 36227 ft | 398 kts | 308° |
| 2026-05-06 13:38 | 50.21056 | 98.62122 | 36233 ft | 398 kts | 308° |
| 2026-05-06 13:39 | 50.24241 | 98.55046 | 36156 ft | 400 kts | 308° |
| 2026-05-06 13:39 | 50.27432 | 98.47938 | 36142 ft | 398 kts | 308° |
| 2026-05-06 13:40 | 50.30602 | 98.40855 | 36156 ft | 397 kts | 308° |
| 2026-05-06 13:40 | 50.33756 | 98.33794 | 36136 ft | 399 kts | 307° |
| 2026-05-06 13:41 | 50.36747 | 98.26394 | 36169 ft | 402 kts | 301° |
| 2026-05-06 13:41 | 50.39277 | 98.18614 | 36146 ft | 404 kts | 300° |
| 2026-05-06 13:42 | 50.41826 | 98.10738 | 36150 ft | 405 kts | 300° |
| 2026-05-06 13:42 | 50.44383 | 98.02856 | 36153 ft | 406 kts | 300° |
| 2026-05-06 13:43 | 50.46942 | 97.94966 | 36142 ft | 406 kts | 300° |
| 2026-05-06 13:43 | 50.49496 | 97.87073 | 36137 ft | 405 kts | 300° |
| 2026-05-06 13:44 | 50.52046 | 97.79168 | 36145 ft | 405 kts | 300° |
| 2026-05-06 13:44 | 50.54588 | 97.71267 | 36135 ft | 405 kts | 300° |
| 2026-05-06 13:45 | 50.57126 | 97.63349 | 36140 ft | 405 kts | 300° |
| 2026-05-06 13:45 | 50.60916 | 97.51480 | 36134 ft | 404 kts | 299° |
| 2026-05-06 13:46 | 50.63429 | 97.43577 | 36134 ft | 403 kts | 299° |
| 2026-05-06 13:46 | 50.65933 | 97.35679 | 36135 ft | 402 kts | 299° |
| 2026-05-06 13:47 | 50.68413 | 97.27834 | 36137 ft | 402 kts | 299° |
| 2026-05-06 13:47 | 50.70900 | 97.19939 | 36132 ft | 402 kts | 299° |
| 2026-05-06 13:48 | 50.73384 | 97.12027 | 36131 ft | 402 kts | 299° |
| 2026-05-06 13:48 | 50.75866 | 97.04098 | 36131 ft | 403 kts | 298° |
| 2026-05-06 13:49 | 50.78345 | 96.96152 | 36137 ft | 403 kts | 298° |
| 2026-05-06 13:49 | 50.80825 | 96.88178 | 36139 ft | 404 kts | 298° |
| 2026-05-06 13:50 | 50.83287 | 96.80233 | 36142 ft | 405 kts | 298° |
| 2026-05-06 13:50 | 50.85763 | 96.72219 | 36133 ft | 405 kts | 298° |
| 2026-05-06 13:51 | 50.88235 | 96.64190 | 36135 ft | 405 kts | 298° |
| 2026-05-06 13:51 | 50.90703 | 96.56150 | 36136 ft | 405 kts | 298° |
| 2026-05-06 13:52 | 50.93146 | 96.48164 | 36130 ft | 405 kts | 298° |
| 2026-05-06 13:52 | 50.95601 | 96.40113 | 36131 ft | 405 kts | 298° |
| 2026-05-06 13:53 | 50.98048 | 96.32062 | 36123 ft | 404 kts | 297° |
| 2026-05-06 13:53 | 51.00069 | 96.25392 | 36132 ft | 404 kts | 297° |
| 2026-05-06 13:54 | 51.02893 | 96.16037 | 36119 ft | 404 kts | 297° |
| 2026-05-06 13:54 | 51.05317 | 96.07985 | 36116 ft | 404 kts | 297° |
| 2026-05-06 13:55 | 51.07737 | 95.99915 | 36116 ft | 404 kts | 297° |
| 2026-05-06 13:55 | 51.10146 | 95.91854 | 36113 ft | 403 kts | 297° |
| 2026-05-06 13:56 | 51.12547 | 95.83795 | 36117 ft | 403 kts | 297° |
| 2026-05-06 13:56 | 51.14540 | 95.77085 | 36106 ft | 403 kts | 297° |
| 2026-05-06 13:57 | 51.16932 | 95.69003 | 36113 ft | 403 kts | 297° |
| 2026-05-06 13:57 | 51.19324 | 95.60897 | 36105 ft | 403 kts | 297° |
| 2026-05-06 13:58 | 51.21705 | 95.52801 | 36107 ft | 403 kts | 297° |
| 2026-05-06 13:58 | 51.24063 | 95.44755 | 36101 ft | 403 kts | 296° |
| 2026-05-06 13:59 | 51.26430 | 95.36653 | 36103 ft | 403 kts | 296° |
| 2026-05-06 14:00 | 51.30933 | 95.21161 | 36097 ft | 402 kts | 296° |
| 2026-05-06 14:00 | 51.32930 | 95.14255 | 36084 ft | 402 kts | 296° |
| 2026-05-06 14:01 | 51.35277 | 95.06120 | 36093 ft | 402 kts | 296° |
| 2026-05-06 14:01 | 51.37602 | 94.98031 | 36084 ft | 403 kts | 296° |
| 2026-05-06 14:02 | 51.39938 | 94.89873 | 36086 ft | 403 kts | 296° |
| 2026-05-06 14:02 | 51.42270 | 94.81706 | 36078 ft | 403 kts | 296° |
| 2026-05-06 14:03 | 51.44598 | 94.73519 | 36080 ft | 403 kts | 296° |
| 2026-05-06 14:03 | 51.46923 | 94.65315 | 36080 ft | 403 kts | 295° |
| 2026-05-06 14:04 | 51.49243 | 94.57105 | 36075 ft | 404 kts | 295° |
| 2026-05-06 14:04 | 51.51556 | 94.48884 | 36077 ft | 404 kts | 295° |
| 2026-05-06 14:05 | 51.53867 | 94.40647 | 36079 ft | 404 kts | 295° |
| 2026-05-06 14:05 | 51.56160 | 94.32445 | 36079 ft | 405 kts | 295° |
| 2026-05-06 14:06 | 51.58464 | 94.24175 | 36076 ft | 405 kts | 295° |
| 2026-05-06 14:06 | 51.60985 | 94.16067 | 36084 ft | 405 kts | 300° |
| 2026-05-06 14:07 | 51.63759 | 94.08170 | 36077 ft | 405 kts | 300° |
| 2026-05-06 14:07 | 51.66539 | 94.00278 | 36073 ft | 405 kts | 300° |
| 2026-05-06 14:08 | 51.69303 | 93.92352 | 36081 ft | 405 kts | 300° |
| 2026-05-06 14:08 | 51.72033 | 93.84461 | 36081 ft | 405 kts | 300° |
| 2026-05-06 14:09 | 51.74770 | 93.76512 | 36092 ft | 405 kts | 300° |
| 2026-05-06 14:09 | 51.77500 | 93.68557 | 36092 ft | 405 kts | 299° |
| 2026-05-06 14:10 | 51.80228 | 93.60582 | 36083 ft | 405 kts | 299° |
| 2026-05-06 14:10 | 51.82950 | 93.52598 | 36082 ft | 406 kts | 299° |
| 2026-05-06 14:11 | 51.85666 | 93.44607 | 36081 ft | 405 kts | 299° |
| 2026-05-06 14:11 | 51.88376 | 93.36608 | 36086 ft | 405 kts | 299° |
| 2026-05-06 14:12 | 51.91078 | 93.28610 | 36087 ft | 404 kts | 299° |
| 2026-05-06 14:12 | 51.93774 | 93.20599 | 36088 ft | 404 kts | 298° |
| 2026-05-06 14:13 | 51.96455 | 93.12610 | 36079 ft | 403 kts | 298° |
| 2026-05-06 14:13 | 51.99127 | 93.04621 | 36090 ft | 403 kts | 298° |
| 2026-05-06 14:14 | 52.01779 | 92.96669 | 36089 ft | 403 kts | 298° |
| 2026-05-06 14:14 | 52.04440 | 92.88661 | 36081 ft | 403 kts | 298° |
| 2026-05-06 14:15 | 52.07096 | 92.80645 | 36082 ft | 403 kts | 298° |
| 2026-05-06 14:15 | 52.09752 | 92.72601 | 36079 ft | 404 kts | 298° |
| 2026-05-06 14:16 | 52.12403 | 92.64545 | 36081 ft | 404 kts | 298° |
| 2026-05-06 14:16 | 52.15051 | 92.56474 | 36079 ft | 405 kts | 298° |
| 2026-05-06 14:17 | 52.17701 | 92.48368 | 36090 ft | 405 kts | 298° |
| 2026-05-06 14:17 | 52.20352 | 92.40236 | 36081 ft | 406 kts | 297° |
| 2026-05-06 14:18 | 52.23002 | 92.32075 | 36083 ft | 407 kts | 297° |
| 2026-05-06 14:18 | 52.25649 | 92.23894 | 36067 ft | 408 kts | 297° |
| 2026-05-06 14:19 | 52.28274 | 92.15764 | 36064 ft | 407 kts | 297° |
| 2026-05-06 14:19 | 52.30906 | 92.07582 | 36071 ft | 406 kts | 297° |
| 2026-05-06 14:20 | 52.33532 | 91.99389 | 36079 ft | 406 kts | 297° |
| 2026-05-06 14:20 | 52.36139 | 91.91228 | 36076 ft | 404 kts | 297° |
| 2026-05-06 14:21 | 52.38740 | 91.83059 | 36071 ft | 404 kts | 297° |
| 2026-05-06 14:21 | 52.41331 | 91.74893 | 36073 ft | 404 kts | 297° |
| 2026-05-06 14:22 | 52.43917 | 91.66717 | 36050 ft | 403 kts | 297° |
| 2026-05-06 14:22 | 52.46485 | 91.58569 | 36064 ft | 402 kts | 297° |
| 2026-05-06 14:23 | 52.49039 | 91.50442 | 36058 ft | 402 kts | 297° |
| 2026-05-06 14:23 | 52.51597 | 91.42273 | 36062 ft | 402 kts | 296° |
| 2026-05-06 14:24 | 52.54153 | 91.34080 | 36057 ft | 403 kts | 296° |
| 2026-05-06 14:24 | 52.56708 | 91.25864 | 36048 ft | 404 kts | 296° |
| 2026-05-06 14:25 | 52.59265 | 91.17615 | 36050 ft | 405 kts | 296° |
| 2026-05-06 14:25 | 52.61822 | 91.09339 | 36052 ft | 406 kts | 296° |
| 2026-05-06 14:26 | 52.64381 | 91.01025 | 36046 ft | 406 kts | 296° |
| 2026-05-06 14:26 | 52.66932 | 90.92709 | 36030 ft | 407 kts | 296° |
| 2026-05-06 14:27 | 52.69462 | 90.84435 | 36038 ft | 406 kts | 296° |
| 2026-05-06 14:27 | 52.72000 | 90.76103 | 36036 ft | 405 kts | 295° |
| 2026-05-06 14:28 | 52.74115 | 90.69140 | 36024 ft | 404 kts | 295° |
| 2026-05-06 14:28 | 52.76627 | 90.60843 | 36017 ft | 404 kts | 295° |
| 2026-05-06 14:29 | 52.79112 | 90.52606 | 36008 ft | 403 kts | 295° |
| 2026-05-06 14:29 | 52.81604 | 90.44317 | 35996 ft | 402 kts | 295° |
| 2026-05-06 14:30 | 52.84091 | 90.36016 | 35992 ft | 402 kts | 295° |
| 2026-05-06 14:30 | 52.86565 | 90.27730 | 35994 ft | 401 kts | 295° |
| 2026-05-06 14:31 | 52.89034 | 90.19431 | 35986 ft | 401 kts | 295° |
| 2026-05-06 14:31 | 52.91493 | 90.11136 | 35986 ft | 401 kts | 295° |
| 2026-05-06 14:32 | 52.93953 | 90.02811 | 35980 ft | 402 kts | 294° |
| 2026-05-06 14:32 | 52.96388 | 89.94540 | 35991 ft | 402 kts | 294° |
| 2026-05-06 14:33 | 52.98838 | 89.86190 | 35981 ft | 402 kts | 294° |
| 2026-05-06 14:33 | 53.01286 | 89.77819 | 35981 ft | 403 kts | 294° |
| 2026-05-06 14:34 | 53.03732 | 89.69423 | 35986 ft | 403 kts | 294° |
| 2026-05-06 14:34 | 53.06175 | 89.61007 | 35979 ft | 404 kts | 294° |
| 2026-05-06 14:35 | 53.08598 | 89.52630 | 35971 ft | 404 kts | 294° |
| 2026-05-06 14:35 | 53.11032 | 89.44188 | 35979 ft | 404 kts | 294° |
| 2026-05-06 14:36 | 53.13463 | 89.35722 | 35981 ft | 405 kts | 294° |
| 2026-05-06 14:36 | 53.15889 | 89.27245 | 35975 ft | 406 kts | 294° |
| 2026-05-06 14:37 | 53.18297 | 89.18798 | 35973 ft | 406 kts | 293° |
| 2026-05-06 14:37 | 53.20719 | 89.10273 | 35976 ft | 406 kts | 293° |
| 2026-05-06 14:38 | 53.23134 | 89.01747 | 35978 ft | 406 kts | 293° |
| 2026-05-06 14:39 | 53.27920 | 88.84778 | 35963 ft | 406 kts | 293° |
| 2026-05-06 14:39 | 53.30322 | 88.76232 | 35958 ft | 406 kts | 293° |
| 2026-05-06 14:40 | 53.32717 | 88.67677 | 35955 ft | 406 kts | 293° |
| 2026-05-06 14:40 | 53.35106 | 88.59110 | 35944 ft | 406 kts | 292° |
| 2026-05-06 14:41 | 53.37488 | 88.50535 | 35954 ft | 406 kts | 292° |
| 2026-05-06 14:41 | 53.39848 | 88.42008 | 35949 ft | 406 kts | 292° |
| 2026-05-06 14:42 | 53.42218 | 88.33415 | 35930 ft | 406 kts | 292° |
| 2026-05-06 14:42 | 53.44581 | 88.24813 | 35930 ft | 406 kts | 292° |
| 2026-05-06 14:43 | 53.46819 | 88.16640 | 35929 ft | 406 kts | 292° |
| 2026-05-06 14:43 | 53.49172 | 88.08012 | 35919 ft | 406 kts | 292° |
| 2026-05-06 14:44 | 53.51520 | 87.99371 | 35908 ft | 407 kts | 292° |
| 2026-05-06 14:45 | 53.53862 | 87.90719 | 35909 ft | 407 kts | 292° |
| 2026-05-06 14:46 | 53.59209 | 87.70845 | 35905 ft | 408 kts | 292° |
| 2026-05-06 14:46 | 53.61542 | 87.62118 | 35903 ft | 408 kts | 292° |
| 2026-05-06 14:47 | 53.63863 | 87.53403 | 35897 ft | 408 kts | 291° |
| 2026-05-06 14:47 | 53.66180 | 87.44671 | 35900 ft | 408 kts | 291° |
| 2026-05-06 14:48 | 53.67717 | 87.38860 | 35895 ft | 408 kts | 291° |
| 2026-05-06 14:49 | 53.73272 | 87.17727 | 35887 ft | 408 kts | 291° |
| 2026-05-06 14:49 | 53.73995 | 87.14962 | 35890 ft | 408 kts | 291° |
| 2026-05-06 14:50 | 53.75115 | 87.10671 | 35890 ft | 408 kts | 291° |
| 2026-05-06 14:51 | 53.77399 | 87.01899 | 35886 ft | 407 kts | 291° |
| 2026-05-06 14:51 | 53.79736 | 86.92890 | 35886 ft | 407 kts | 291° |
| 2026-05-06 14:52 | 53.82045 | 86.84129 | 35884 ft | 408 kts | 293° |
| 2026-05-06 14:52 | 53.84570 | 86.75502 | 35886 ft | 408 kts | 294° |
| 2026-05-06 14:53 | 53.87112 | 86.66897 | 35890 ft | 408 kts | 294° |
| 2026-05-06 14:53 | 53.89628 | 86.58251 | 35895 ft | 409 kts | 293° |
| 2026-05-06 14:54 | 53.92124 | 86.49585 | 35903 ft | 409 kts | 293° |
| 2026-05-06 14:54 | 53.94597 | 86.40958 | 35908 ft | 410 kts | 293° |
| 2026-05-06 14:55 | 53.97087 | 86.32240 | 35908 ft | 410 kts | 293° |
| 2026-05-06 14:55 | 53.99569 | 86.23528 | 35921 ft | 411 kts | 293° |
| 2026-05-06 14:56 | 54.02055 | 86.14769 | 35918 ft | 412 kts | 293° |
| 2026-05-06 14:56 | 54.04120 | 86.07473 | 35912 ft | 412 kts | 293° |
| 2026-05-06 14:57 | 54.06617 | 85.98620 | 35555 ft | 416 kts | 292° |
| 2026-05-06 14:57 | 54.07862 | 85.94197 | 35319 ft | 412 kts | 292° |
| 2026-05-06 14:57 | 54.09096 | 85.89806 | 35064 ft | 409 kts | 292° |
| 2026-05-06 14:57 | 54.10321 | 85.85437 | 34827 ft | 409 kts | 292° |
| 2026-05-06 14:58 | 54.11543 | 85.81071 | 34598 ft | 408 kts | 292° |
| 2026-05-06 14:58 | 54.12764 | 85.76696 | 34363 ft | 408 kts | 292° |
| 2026-05-06 14:58 | 54.13981 | 85.72328 | 34127 ft | 408 kts | 291° |
| 2026-05-06 14:58 | 54.15194 | 85.67966 | 33898 ft | 407 kts | 291° |
| 2026-05-06 14:59 | 54.16404 | 85.63608 | 33548 ft | 404 kts | 291° |
| 2026-05-06 14:59 | 54.17197 | 85.60747 | 33251 ft | 400 kts | 291° |
| 2026-05-06 14:59 | 54.20140 | 85.50104 | 32121 ft | 389 kts | 291° |
| 2026-05-06 15:00 | 54.21274 | 85.45987 | 31670 ft | 385 kts | 291° |
| 2026-05-06 15:00 | 54.22408 | 85.41864 | 31234 ft | 382 kts | 291° |
| 2026-05-06 15:00 | 54.23517 | 85.37756 | 30790 ft | 378 kts | 288° |
| 2026-05-06 15:00 | 54.24475 | 85.33608 | 30364 ft | 374 kts | 287° |
| 2026-05-06 15:01 | 54.25381 | 85.29451 | 29925 ft | 371 kts | 286° |
| 2026-05-06 15:01 | 54.26265 | 85.25325 | 29429 ft | 368 kts | 286° |
| 2026-05-06 15:01 | 54.27137 | 85.21244 | 28985 ft | 364 kts | 286° |
| 2026-05-06 15:01 | 54.28005 | 85.17187 | 28536 ft | 360 kts | 286° |
| 2026-05-06 15:02 | 54.28870 | 85.13159 | 28103 ft | 363 kts | 286° |
| 2026-05-06 15:02 | 54.29744 | 85.09084 | 27645 ft | 366 kts | 286° |
| 2026-05-06 15:02 | 54.30626 | 85.04981 | 27173 ft | 366 kts | 286° |
| 2026-05-06 15:02 | 54.31502 | 85.00911 | 26749 ft | 362 kts | 286° |
| 2026-05-06 15:03 | 54.32076 | 84.98240 | 26451 ft | 360 kts | 286° |
| 2026-05-06 15:04 | 54.37301 | 84.73774 | 23805 ft | 349 kts | 286° |
| 2026-05-06 15:04 | 54.38132 | 84.69856 | 23345 ft | 349 kts | 286° |
| 2026-05-06 15:05 | 54.38862 | 84.66406 | 22910 ft | 347 kts | 286° |
| 2026-05-06 15:05 | 54.39562 | 84.63094 | 22528 ft | 345 kts | 286° |
| 2026-05-06 15:05 | 54.40274 | 84.59718 | 22141 ft | 343 kts | 285° |
| 2026-05-06 15:05 | 54.41085 | 84.55870 | 21726 ft | 340 kts | 286° |
| 2026-05-06 15:06 | 54.41889 | 84.52048 | 21292 ft | 338 kts | 285° |
| 2026-05-06 15:06 | 54.42674 | 84.48307 | 20873 ft | 336 kts | 285° |
| 2026-05-06 15:06 | 54.43462 | 84.44539 | 20473 ft | 334 kts | 285° |
| 2026-05-06 15:06 | 54.44245 | 84.40793 | 20059 ft | 332 kts | 285° |
| 2026-05-06 15:07 | 54.45023 | 84.37061 | 19652 ft | 331 kts | 286° |
| 2026-05-06 15:07 | 54.47246 | 84.26368 | 18489 ft | 329 kts | 286° |
| 2026-05-06 15:08 | 54.47756 | 84.23906 | 18219 ft | 329 kts | 286° |
| 2026-05-06 15:08 | 54.48781 | 84.18953 | 17598 ft | 328 kts | 286° |
| 2026-05-06 15:08 | 54.50395 | 84.11898 | 16705 ft | 327 kts | 296° |
| 2026-05-06 15:09 | 54.51628 | 84.08571 | 16220 ft | 329 kts | 299° |
| 2026-05-06 15:09 | 54.52910 | 84.05336 | 15797 ft | 327 kts | 300° |
| 2026-05-06 15:09 | 54.54194 | 84.02116 | 15395 ft | 324 kts | 300° |
| 2026-05-06 15:09 | 54.55458 | 83.98921 | 14998 ft | 321 kts | 300° |
| 2026-05-06 15:10 | 54.56702 | 83.95745 | 14613 ft | 319 kts | 300° |
| 2026-05-06 15:10 | 54.57933 | 83.92575 | 14235 ft | 317 kts | 299° |
| 2026-05-06 15:10 | 54.59148 | 83.89426 | 13847 ft | 314 kts | 299° |
| 2026-05-06 15:10 | 54.60356 | 83.86285 | 13460 ft | 312 kts | 299° |
| 2026-05-06 15:11 | 54.61548 | 83.83176 | 13065 ft | 309 kts | 299° |
| 2026-05-06 15:11 | 54.62727 | 83.80096 | 12703 ft | 306 kts | 299° |
| 2026-05-06 15:11 | 54.63877 | 83.77086 | 12364 ft | 303 kts | 299° |
| 2026-05-06 15:11 | 54.65032 | 83.74060 | 12001 ft | 301 kts | 299° |
| 2026-05-06 15:12 | 54.66178 | 83.71051 | 11641 ft | 299 kts | 299° |
| 2026-05-06 15:12 | 54.67318 | 83.68055 | 11279 ft | 297 kts | 299° |
| 2026-05-06 15:12 | 54.68451 | 83.65074 | 10919 ft | 296 kts | 299° |
| 2026-05-06 15:12 | 54.69580 | 83.62102 | 10555 ft | 296 kts | 299° |
| 2026-05-06 15:13 | 54.70696 | 83.59160 | 10384 ft | 288 kts | 300° |
| 2026-05-06 15:13 | 54.71779 | 83.56309 | 10240 ft | 279 kts | 299° |
| 2026-05-06 15:13 | 54.72734 | 83.53476 | 10125 ft | 268 kts | 294° |
| 2026-05-06 15:13 | 54.73552 | 83.50626 | 9996 ft | 259 kts | 292° |
| 2026-05-06 15:14 | 54.74330 | 83.47830 | 9879 ft | 258 kts | 292° |
| 2026-05-06 15:14 | 54.75116 | 83.45004 | 9574 ft | 261 kts | 293° |
| 2026-05-06 15:14 | 54.75908 | 83.42186 | 9283 ft | 260 kts | 293° |
| 2026-05-06 15:14 | 54.76699 | 83.39387 | 8990 ft | 257 kts | 294° |
| 2026-05-06 15:15 | 54.77484 | 83.36623 | 8705 ft | 255 kts | 294° |
| 2026-05-06 15:15 | 54.78262 | 83.33884 | 8429 ft | 252 kts | 294° |
| 2026-05-06 15:15 | 54.79028 | 83.31193 | 8153 ft | 251 kts | 294° |
| 2026-05-06 15:15 | 54.79798 | 83.28492 | 7875 ft | 249 kts | 294° |
| 2026-05-06 15:16 | 54.80559 | 83.25814 | 7615 ft | 247 kts | 294° |
| 2026-05-06 15:16 | 54.81316 | 83.23152 | 7351 ft | 245 kts | 294° |
| 2026-05-06 15:16 | 54.82066 | 83.20509 | 7072 ft | 244 kts | 294° |
| 2026-05-06 15:16 | 54.82815 | 83.17869 | 6793 ft | 243 kts | 294° |
| 2026-05-06 15:17 | 54.83560 | 83.15238 | 6521 ft | 243 kts | 294° |
| 2026-05-06 15:17 | 54.84445 | 83.12757 | 6240 ft | 245 kts | 312° |
| 2026-05-06 15:17 | 54.85859 | 83.11089 | 5980 ft | 249 kts | 334° |
| 2026-05-06 15:17 | 54.87526 | 83.10265 | 5756 ft | 250 kts | 343° |
| 2026-05-06 15:18 | 54.89235 | 83.09670 | 5507 ft | 248 kts | 344° |
| 2026-05-06 15:18 | 54.90932 | 83.09089 | 5245 ft | 247 kts | 344° |
| 2026-05-06 15:18 | 54.92552 | 83.08332 | 4963 ft | 242 kts | 328° |
| 2026-05-06 15:18 | 54.93841 | 83.06559 | 4724 ft | 235 kts | 311° |
| 2026-05-06 15:19 | 54.94926 | 83.04445 | 4458 ft | 233 kts | 309° |
| 2026-05-06 15:19 | 54.95981 | 83.02312 | 4199 ft | 232 kts | 309° |
| 2026-05-06 15:19 | 54.97036 | 83.00193 | 3939 ft | 231 kts | 309° |
| 2026-05-06 15:19 | 54.98087 | 82.98097 | 3675 ft | 229 kts | 309° |
| 2026-05-06 15:20 | 54.99136 | 82.96011 | 3431 ft | 228 kts | 309° |
| 2026-05-06 15:20 | 55.00170 | 82.93959 | 3173 ft | 221 kts | 309° |
| 2026-05-06 15:20 | 55.01168 | 82.91983 | 2934 ft | 213 kts | 309° |
| 2026-05-06 15:20 | 55.02117 | 82.90104 | 2718 ft | 200 kts | 309° |
| 2026-05-06 15:21 | 55.02970 | 82.88287 | 2487 ft | 186 kts | 297° |
| 2026-05-06 15:21 | 55.03121 | 82.86211 | 2285 ft | 167 kts | 263° |
| 2026-05-06 15:21 | 55.02972 | 82.84273 | 2100 ft | 158 kts | 266° |
| 2026-05-06 15:21 | 55.02831 | 82.82448 | 2032 ft | 151 kts | 264° |
| 2026-05-06 15:22 | 55.02669 | 82.80631 | 1858 ft | 151 kts | 263° |
| 2026-05-06 15:22 | 55.02505 | 82.78844 | 1661 ft | 147 kts | 263° |
| 2026-05-06 15:22 | 55.02345 | 82.77103 | 1466 ft | 145 kts | 263° |
| 2026-05-06 15:22 | 55.02182 | 82.75331 | 1265 ft | 149 kts | 262° |
| 2026-05-06 15:23 | 55.02009 | 82.73608 | 1138 ft | 139 kts | 261° |
| 2026-05-06 15:23 | 55.01856 | 82.71918 | 915 ft | 143 kts | 263° |
| 2026-05-06 15:23 | 55.01713 | 82.70190 | 674 ft | 144 kts | 262° |
| 2026-05-06 15:23 | 55.01555 | 82.68505 | 481 ft | 139 kts | 261° |
| 2026-05-06 15:24 | 55.01402 | 82.66864 | 375 ft | 131 kts | 261° |
| 2026-05-06 15:24 | 55.01283 | 82.65511 | 372 ft | 95 kts | 261° |
| 2026-05-06 15:24 | 55.01233 | 82.65053 | 372 ft | 8 kts | 216° |
| 2026-05-06 15:24 | 55.01174 | 82.65058 | 371 ft | 9 kts | 172° |
| 2026-05-06 15:25 | 55.01108 | 82.65077 | 372 ft | 11 kts | 170° |
| 2026-05-06 15:25 | 55.01029 | 82.65100 | 372 ft | 11 kts | 172° |
| 2026-05-06 15:25 | 55.00963 | 82.65117 | 372 ft | 9 kts | 171° |
| 2026-05-06 15:25 | 55.00907 | 82.65133 | 372 ft | 7 kts | 164° |
| 2026-05-06 15:26 | 55.00884 | 82.65200 | 372 ft | 7 kts | 94° |
| 2026-05-06 15:26 | 55.00891 | 82.65374 | 372 ft | 7 kts | 81° |
| 2026-05-06 15:26 | 55.00901 | 82.65462 | 372 ft | 9 kts | 79° |
| 2026-05-06 15:27 | 55.00914 | 82.65612 | 372 ft | 15 kts | 82° |
| 2026-05-06 15:27 | 55.00930 | 82.65798 | 372 ft | 15 kts | 81° |
| 2026-05-06 15:27 | 55.00947 | 82.65978 | 372 ft | 15 kts | 82° |
| 2026-05-06 15:27 | 55.00963 | 82.66123 | 372 ft | 10 kts | 66° |
| 2026-05-06 15:28 | 55.00990 | 82.66226 | 372 ft | 9 kts | 69° |
| 2026-05-06 15:28 | 55.01015 | 82.66352 | 372 ft | 12 kts | 71° |
| 2026-05-06 15:28 | 55.01038 | 82.66462 | 372 ft | 9 kts | 69° |
| 2026-05-06 15:28 | 55.01064 | 82.66566 | 372 ft | 9 kts | 64° |
| 2026-05-06 15:29 | 55.01088 | 82.66668 | 372 ft | 9 kts | 71° |
| 2026-05-06 15:29 | 55.01100 | 82.66773 | 372 ft | 9 kts | 85° |
| 2026-05-06 15:29 | 55.01091 | 82.66873 | 372 ft | 8 kts | 118° |
| 2026-05-06 15:29 | 55.01080 | 82.66965 | 372 ft | 8 kts | 79° |
| 2026-05-06 15:30 | 55.01087 | 82.67040 | 372 ft | 2 kts | 82° |
| 2026-05-06 15:32 | 55.01087 | 82.67036 | 372 ft | 3 kts | 82° |
| 2026-05-06 15:32 | 55.01085 | 82.66993 | 372 ft | 3 kts | 92° |
| 2026-05-06 15:32 | 55.01088 | 82.66962 | 372 ft | 2 kts | 118° |
| 2026-05-06 15:32 | 55.01096 | 82.66945 | 372 ft | 2 kts | 148° |
| 2026-05-06 15:33 | 55.01110 | 82.66934 | 372 ft | 2 kts | 167° |
| 2026-05-06 15:33 | 55.01122 | 82.66930 | 372 ft | 2 kts | 170° |
| 2026-05-06 15:33 | 55.01133 | 82.66927 | 372 ft | 0 kts | 171° |